sensor_id;sensor_type;location;lat;lon;timestamp;temperature;humidity
31687;DHT22;18285;51.330;4.946;2022-07-18T00:05:10;25.20;44.00
31687;DHT22;18285;51.330;4.946;2022-07-18T00:29:21;25.30;43.20
31687;DHT22;18285;51.330;4.946;2022-07-18T00:53:32;25.30;42.60
31687;DHT22;18285;51.330;4.946;2022-07-18T01:17:42;25.20;42.10
31687;DHT22;18285;51.330;4.946;2022-07-18T01:42:01;25.30;42.10
31687;DHT22;18285;51.330;4.946;2022-07-18T02:06:12;25.20;41.80
31687;DHT22;18285;51.330;4.946;2022-07-18T02:30:22;25.20;41.70
31687;DHT22;18285;51.330;4.946;2022-07-18T02:54:34;25.20;41.80
31687;DHT22;18285;51.330;4.946;2022-07-18T03:18:45;25.40;41.30
31687;DHT22;18285;51.330;4.946;2022-07-18T03:42:55;25.50;40.90
31687;DHT22;18285;51.330;4.946;2022-07-18T04:07:06;25.50;40.60
31687;DHT22;18285;51.330;4.946;2022-07-18T04:31:16;25.50;40.50
31687;DHT22;18285;51.330;4.946;2022-07-18T04:55:29;25.40;40.30
31687;DHT22;18285;51.330;4.946;2022-07-18T05:19:39;25.40;40.40
31687;DHT22;18285;51.330;4.946;2022-07-18T05:43:50;25.40;40.40
31687;DHT22;18285;51.330;4.946;2022-07-18T06:08:01;25.40;40.50
31687;DHT22;18285;51.330;4.946;2022-07-18T06:32:11;25.50;40.40
31687;DHT22;18285;51.330;4.946;2022-07-18T06:56:22;25.50;40.00
31687;DHT22;18285;51.330;4.946;2022-07-18T07:20:33;25.40;39.80
31687;DHT22;18285;51.330;4.946;2022-07-18T07:44:44;25.40;39.80
31687;DHT22;18285;51.330;4.946;2022-07-18T08:08:55;25.40;39.70
31687;DHT22;18285;51.330;4.946;2022-07-18T08:33:06;25.40;40.20
31687;DHT22;18285;51.330;4.946;2022-07-18T08:57:17;25.40;40.50
31687;DHT22;18285;51.330;4.946;2022-07-18T09:21:28;25.40;41.20
31687;DHT22;18285;51.330;4.946;2022-07-18T10:09:53;25.40;41.00
31687;DHT22;18285;51.330;4.946;2022-07-18T10:58:18;25.40;41.30
31687;DHT22;18285;51.330;4.946;2022-07-18T11:22:29;25.40;41.30
31687;DHT22;18285;51.330;4.946;2022-07-18T11:46:40;25.40;41.90
31687;DHT22;18285;51.330;4.946;2022-07-18T12:11:14;25.40;42.40
31687;DHT22;18285;51.330;4.946;2022-07-18T12:35:32;25.40;42.10
31687;DHT22;18285;51.330;4.946;2022-07-18T12:59:43;25.40;42.70
31687;DHT22;18285;51.330;4.946;2022-07-18T13:23:54;25.40;42.80
31687;DHT22;18285;51.330;4.946;2022-07-18T13:48:05;25.50;42.90
31687;DHT22;18285;51.330;4.946;2022-07-18T14:12:16;25.40;42.90
31687;DHT22;18285;51.330;4.946;2022-07-18T14:36:26;25.40;42.80
31687;DHT22;18285;51.330;4.946;2022-07-18T15:00:37;25.40;43.10
31687;DHT22;18285;51.330;4.946;2022-07-18T15:24:48;25.40;43.10
31687;DHT22;18285;51.330;4.946;2022-07-18T15:48:58;25.40;43.20
31687;DHT22;18285;51.330;4.946;2022-07-18T16:13:09;25.40;43.20
31687;DHT22;18285;51.330;4.946;2022-07-18T16:37:20;25.40;43.20
31687;DHT22;18285;51.330;4.946;2022-07-18T17:01:31;25.40;43.10
31687;DHT22;18285;51.330;4.946;2022-07-18T17:25:42;25.40;43.30
31687;DHT22;18285;51.330;4.946;2022-07-18T17:49:53;25.50;43.50
31687;DHT22;18285;51.330;4.946;2022-07-18T18:14:04;25.50;43.70
31687;DHT22;18285;51.330;4.946;2022-07-18T18:38:15;25.50;43.80
31687;DHT22;18285;51.330;4.946;2022-07-18T19:02:25;25.50;43.80
31687;DHT22;18285;51.330;4.946;2022-07-18T19:26:36;25.50;43.90
31687;DHT22;18285;51.330;4.946;2022-07-18T19:50:47;25.50;43.90
31687;DHT22;18285;51.330;4.946;2022-07-18T20:14:58;25.50;43.80
31687;DHT22;18285;51.330;4.946;2022-07-18T20:39:09;25.50;43.90
31687;DHT22;18285;51.330;4.946;2022-07-18T21:03:20;25.50;44.10
31687;DHT22;18285;51.330;4.946;2022-07-18T21:27:30;25.50;43.90
31687;DHT22;18285;51.330;4.946;2022-07-18T21:51:41;25.50;43.90
31687;DHT22;18285;51.330;4.946;2022-07-18T22:15:52;25.50;44.00
31687;DHT22;18285;51.330;4.946;2022-07-18T22:40:03;25.50;44.10
31687;DHT22;18285;51.330;4.946;2022-07-18T23:04:14;25.50;44.20
31687;DHT22;18285;51.330;4.946;2022-07-18T23:28:24;25.50;44.40
31687;DHT22;18285;51.330;4.946;2022-07-18T23:52:39;25.50;44.50
